Terminal Aerodrome Forecast
Issued by NWS

Home | Current Version | Previous Version | Text Only | Print | Product List | Glossary On
Versions: 1 2 3 4 5 6 7 8 9 10 11 12 13 14 15 16 17 18 19 20
925
FTUS41 KGYX 240528
TAFRKD
TAF
KRKD 240528Z 2406/2506 VRB03KT P6SM SCT100 BKN250
     FM241300 21009KT P6SM BKN050 OVC100
     FM241800 21011G19KT 5SM -SN BKN025 OVC050
     FM242200 22009G16KT 5SM -RA BKN015 OVC025
     FM250100 26006KT P6SM SCT007 BKN015 OVC025
      AMD LTD TO CLD VIS AND WIND=

USA.gov is the U.S. government's official web portal to all federal, state and local government web resources and services.